Arborg, Canada
Current Conditions -  °F | °C
As of 12:00 PM on Monday 24 Nov 2014 (Local Time) from CYWG Reporting Station
Ice Pellets Ice Pellets  
Wind Chill: -11°   Ceiling: Unl
Heat Index:   Visibility: 15mi
Dew Point:   Wind: 15mph
Humidity: 79%   Direction: 340°NNW
Pressure: 29.88"   Gusts: NA
Location:  50.91°N, 97.22°W
Report Text: CYWG 241800Z 34013KT 15SM IC FEW250 M14/M17 A2988 RMK CI1 SLP138
Loading
Personal Weather Stations






























Interactive Weather Map New forecast layout! Learn more

10-Day Weather Forecast

Advertisements
Track Severe Weather on mobile